Latest Weather Observations for Laverton

IDV60801

Issued at 11:05 am EDT Tuesday 25 November 2014 (issued every 30 minutes, with the page automatically refreshed every 10 minutes)

About weather observations | Map of weather stations | Latest weather observations for VIC | Other Formats
Station Details ID: 087031 Name: LAVERTON RAAF Lat: -37.86 Lon: 144.76 Height: 20.1 m
Data from the previous 72 hours. | See also: Recent months at Laverton
Date/Time
EDT
Temp
°C
App
Temp
°C
Dew
Point
Rel
Hum
%
Delta-T
°C
Wind Press
QNH
hPa
Press
MSL
hPa
Rain
since 9 am
mm
Dir
 
Spd
km/h
Gust
km/h
Spd
kts
Gust
kts
25/11:00am 17.6 12.4 7.1 50 5.2 W 24 37 13 20 1018.9 1018.8 0.0
25/10:30am 17.2 12.0 7.3 52 4.9 W 24 33 13 18 1019.0 1018.9 0.0
25/10:00am 16.1 10.3 8.1 59 4.0 WSW 28 43 15 23 1019.0 1018.9 0.0
25/09:30am 15.6 10.7 8.4 62 3.6 W 24 35 13 19 1018.9 1018.8 0.0
25/09:00am 14.9 9.6 8.4 65 3.3 W 26 37 14 20 1018.6 1018.5 9.6
25/08:30am 14.7 10.6 8.6 67 3.1 W 20 30 11 16 1018.1 1018.0 9.6
25/08:00am 13.3 9.8 8.8 74 2.3 WNW 17 22 9 12 1017.6 1017.5 9.6
25/07:30am 11.2 7.6 8.2 82 1.5 NW 17 24 9 13 1017.3 1017.2 9.6
25/07:00am 10.3 7.3 7.7 84 1.2 NW 13 17 7 9 1016.8 1016.7 9.6
25/06:30am 9.3 5.4 6.9 85 1.1 WNW 17 20 9 11 1016.1 1016.0 9.6
25/06:00am 9.5 5.9 6.9 84 1.2 WNW 15 20 8 11 1015.8 1015.7 9.6
25/05:30am 9.4 5.8 6.7 83 1.3 WNW 15 19 8 10 1015.5 1015.4 9.6
25/05:00am 9.8 6.2 6.7 81 1.4 WNW 15 22 8 12 1015.2 1015.1 9.6
25/04:30am 10.3 6.3 6.8 79 1.6 WNW 17 26 9 14 1014.9 1014.8 9.6
25/04:00am 10.7 6.2 6.8 77 1.8 W 20 30 11 16 1014.7 1014.6 9.6
25/03:30am 10.7 6.1 6.6 76 1.9 W 20 26 11 14 1014.6 1014.5 9.6
25/03:00am 10.9 6.4 6.8 76 1.9 W 20 28 11 15 1014.8 1014.7 9.6
25/02:30am 10.9 6.6 7.0 77 1.9 WNW 19 28 10 15 1014.8 1014.7 9.6
25/02:00am 10.0 6.2 7.4 84 1.2 WNW 17 22 9 12 1014.6 1014.5 9.6
25/01:30am 9.9 6.0 7.2 83 1.3 WNW 17 20 9 11 1014.4 1014.3 9.6
25/01:00am 10.2 6.7 7.1 81 1.5 WNW 15 19 8 10 1014.6 1014.5 9.6
25/12:30am 11.1 7.6 7.0 76 2.0 WNW 15 17 8 9 1014.5 1014.4 9.6
25/12:00am 11.8 7.8 6.7 71 2.4 W 17 20 9 11 1014.3 1014.2 9.6
 
Date/Time
EDT
Temp
°C
App
Temp
°C
Dew
Point
Rel
Hum
%
Delta-T
°C
Wind Press
QNH
hPa
Press
MSL
hPa
Rain
since 9 am
mm
Dir
 
Spd
km/h
Gust
km/h
Spd
kts
Gust
kts
24/11:30pm 12.4 8.9 7.1 70 2.6 W 15 22 8 12 1014.1 1014.0 9.6
24/11:00pm 12.8 9.3 7.3 69 2.7 WSW 15 19 8 10 1013.8 1013.7 9.6
24/10:30pm 13.2 9.7 8.9 75 2.2 W 17 24 9 13 1013.9 1013.8 9.6
24/10:00pm 13.1 10.7 9.9 81 1.6 W 13 17 7 9 1013.5 1013.4 9.6
24/09:30pm 13.6 10.9 10.2 80 1.8 W 15 19 8 10 1013.1 1013.0 9.6
24/09:00pm 14.2 11.5 10.4 78 2.0 W 15 22 8 12 1012.8 1012.7 9.6
24/08:30pm 14.4 11.0 10.6 78 2.0 WSW 19 26 10 14 1012.2 1012.1 9.6
24/08:00pm 14.6 10.9 10.2 75 2.3 W 20 28 11 15 1011.7 1011.6 9.6
24/07:30pm 14.9 10.4 9.9 72 2.6 WSW 24 37 13 20 1010.7 1010.7 9.6
24/07:00pm 14.8 9.5 11.2 79 1.9 WSW 30 48 16 26 1010.3 1010.3 9.6
24/06:34pm 15.5 9.8 11.9 79 2.0 SW 33 56 18 30 1009.3 1009.3 9.6
24/06:30pm 16.6 12.0 13.5 82 1.7 SW 30 37 16 20 1009.2 1009.2 9.6
24/06:27pm 16.7 11.7 13.4 81 1.9 SW 32 37 17 20 1009.1 1009.1 9.6
24/06:00pm 18.2 17.0 14.1 77 2.4 SW 13 19 7 10 1007.7 1007.7 9.6
24/05:30pm 18.1 16.3 14.4 79 2.1 SW 17 24 9 13 1007.3 1007.3 9.6
24/05:00pm 17.2 14.8 14.5 84 1.6 WSW 20 30 11 16 1007.1 1007.1 9.6
24/04:30pm 16.8 14.7 15.2 90 0.9 WSW 20 28 11 15 1006.8 1006.8 9.6
24/04:15pm 16.9 14.5 15.4 91 0.9 WSW 22 32 12 17 1006.9 1006.9 9.6
24/04:00pm 16.8 13.7 15.7 93 0.6 WSW 26 37 14 20 1006.8 1006.8 9.6
24/03:49pm 17.4 15.8 16.1 92 0.8 SW 19 39 10 21 1006.5 1006.5 9.6
24/03:46pm 17.8 17.6 16.7 93 0.7 WSW 13 24 7 13 1006.6 1006.6 9.6
24/03:30pm 17.9 18.4 16.6 92 0.8 W 9 17 5 9 1006.9 1006.9 8.8
24/03:08pm 17.8 18.4 16.7 93 0.7 SW 9 15 5 8 1006.1 1006.1 8.8
24/03:00pm 17.5 17.6 16.4 93 0.7 SW 11 17 6 9 1006.2 1006.2 8.8
24/02:46pm 17.4 16.2 16.1 92 0.8 SSW 17 22 9 12 1006.4 1006.4 8.2
24/02:30pm 17.7 15.9 16.0 90 1.0 SSW 20 28 11 15 1006.0 1006.0 8.0
24/02:07pm 18.5 15.3 16.3 87 1.3 SW 28 33 15 18 1006.5 1006.5 7.8
24/02:00pm 18.7 19.3 16.7 88 1.2 SW 9 15 5 8 1006.7 1006.7 7.8
24/01:30pm 18.4 19.2 17.4 94 0.6 E 9 13 5 7 1006.3 1006.3 7.8
24/01:15pm 17.5 17.8 16.9 96 0.4 ENE 11 17 6 9 1006.8 1006.8 7.8
24/01:00pm 16.7 15.4 15.9 95 0.5 ENE 17 28 9 15 1006.8 1006.8 7.8
24/12:54pm 16.6 14.3 15.8 95 0.5 ENE 22 28 12 15 1006.7 1006.7 7.4
24/12:30pm 16.5 15.9 15.7 95 0.5 E 13 19 7 10 1007.8 1007.8 6.8
24/12:28pm 16.5 15.9 15.7 95 0.5 E 13 19 7 10 1007.6 1007.6 6.8
24/12:17pm 16.6 16.0 15.6 94 0.6 ENE 13 17 7 9 1007.9 1007.9 6.6
24/12:00pm 16.3 15.9 15.2 93 0.6 S 11 19 6 10 1009.9 1009.9 5.4
24/11:32am 16.4 16.7 15.1 92 0.8 E 7 11 4 6 1009.1 1009.1 4.8
24/11:30am 16.4 16.7 15.1 92 0.8 E 7 9 4 5 1009.3 1009.3 4.8
24/11:00am 16.1 15.5 14.6 91 0.9 SW 11 22 6 12 1009.8 1009.8 3.2
24/10:54am 16.3 16.5 14.7 90 0.9 WSW 7 22 4 12 1010.3 1010.3 2.8
24/10:41am 16.1 16.2 14.5 90 0.9 SE 7 13 4 7 1009.2 1009.2 2.0
24/10:30am 16.0 15.6 14.2 89 1.0 E 9 15 5 8 1009.3 1009.3 2.0
24/10:12am 16.4 15.9 13.9 85 1.4 ENE 9 13 5 7 1009.6 1009.6 0.8
24/10:00am 16.6 16.1 13.7 83 1.6 E 9 15 5 8 1009.6 1009.6 0.0
24/09:30am 16.6 15.6 13.3 81 1.8 WSW 11 15 6 8 1009.7 1009.7 0.0
24/09:00am 15.6 13.3 11.8 78 2.1 SW 15 20 8 11 1009.6 1009.6 0.0
24/08:30am 16.3 14.2 11.2 72 2.7 SSW 13 20 7 11 1009.5 1009.5 0.0
24/08:08am 16.3 10.4 12.3 77 2.2 WSW 35 69 19 37 1009.8 1009.8 0.0
24/08:07am 16.6 11.8 12.9 79 2.1 WSW 30 50 16 27 1009.8 1009.8 0.0
24/08:06am 16.7 12.8 13.2 80 2.0 WSW 26 44 14 24 1009.1 1009.1 0.0
24/08:00am 16.4 15.3 13.1 81 1.8 E 11 15 6 8 1007.1 1007.1 0.0
24/07:30am 15.1 15.9 12.4 84 1.5 CALM 0 0 0 0 1007.1 1007.1 0.0
24/07:00am 14.1 13.5 11.8 86 1.2 NE 6 11 3 6 1007.4 1007.4 0.0
24/06:30am 13.6 12.8 11.1 85 1.3 NNE 6 9 3 5 1007.8 1007.8 0.0
24/06:00am 13.3 12.4 10.5 83 1.5 WSW 6 9 3 5 1007.8 1007.8 0.0
24/05:30am 12.9 10.5 9.9 82 1.5 NW 13 19 7 10 1009.2 1009.2 0.0
24/05:00am 12.9 11.5 9.5 80 1.7 NW 7 9 4 5 1008.5 1008.5 0.0
24/04:30am 12.8 10.7 9.6 81 1.6 NW 11 13 6 7 1008.7 1008.7 0.0
24/04:00am 12.4 10.5 9.1 80 1.7 N 9 11 5 6 1008.9 1008.9 0.0
24/03:30am 13.1 11.8 9.2 77 2.0 WNW 6 6 3 3 1009.0 1009.0 0.0
24/03:00am 12.7 10.8 9.2 79 1.8 WNW 9 11 5 6 1009.8 1009.8 0.0
24/02:30am 13.1 11.1 8.6 74 2.3 NW 9 9 5 5 1010.3 1010.3 0.0
24/02:00am 14.7 14.5 8.9 68 3.0 CALM 0 0 0 0 1010.6 1010.6 0.0
24/01:30am 14.8 13.4 8.7 67 3.1 E 6 6 3 3 1011.0 1011.0 0.0
24/01:00am 15.4 14.0 8.9 65 3.3 E 6 7 3 4 1011.7 1011.6 0.0
24/12:30am 16.1 14.7 8.8 62 3.7 SE 6 7 3 4 1012.3 1012.2 0.0
24/12:00am 16.5 15.2 9.2 62 3.8 SE 6 9 3 5 1012.8 1012.7 0.0
 
Date/Time
EDT
Temp
°C
App
Temp
°C
Dew
Point
Rel
Hum
%
Delta-T
°C
Wind Press
QNH
hPa
Press
MSL
hPa
Rain
since 9 am
mm
Dir
 
Spd
km/h
Gust
km/h
Spd
kts
Gust
kts
23/11:30pm 16.8 15.3 9.2 61 3.9 SSE 7 11 4 6 1013.2 1013.1 0.0
23/11:00pm 16.8 15.4 9.5 62 3.8 SSE 7 11 4 6 1013.6 1013.5 0.0
23/10:30pm 17.1 15.1 10.0 63 3.7 SSE 11 17 6 9 1013.9 1013.8 0.0
23/10:00pm 17.2 15.2 10.1 63 3.8 S 11 17 6 9 1013.9 1013.8 0.0
23/09:30pm 17.3 15.4 10.4 64 3.7 SE 11 20 6 11 1013.6 1013.5 0.0
23/09:00pm 17.4 14.7 10.5 64 3.7 SE 15 20 8 11 1013.2 1013.1 0.0
23/08:30pm 17.6 15.4 10.7 64 3.7 SE 13 19 7 10 1013.4 1013.3 0.0
23/08:00pm 17.8 15.5 10.4 62 4.0 SSE 13 22 7 12 1013.2 1013.1 0.0
23/07:30pm 17.9 14.6 10.8 63 3.8 SSE 19 26 10 14 1013.0 1012.9 0.0
23/07:00pm 18.2 15.4 10.1 59 4.3 SSE 15 24 8 13 1013.3 1013.2 0.0
23/06:30pm 18.0 13.9 10.1 60 4.2 S 22 30 12 16 1012.8 1012.7 0.0
23/06:00pm 18.5 14.2 10.8 61 4.2 S 24 33 13 18 1012.7 1012.6 0.0
23/05:30pm 19.3 14.6 10.6 57 4.7 S 26 35 14 19 1012.3 1012.2 0.0
23/05:00pm 20.6 15.8 10.4 52 5.5 S 26 35 14 19 1012.1 1012.0 0.0
23/04:30pm 21.5 17.2 10.9 51 5.8 SSE 24 35 13 19 1011.7 1011.6 0.0
23/04:00pm 21.9 17.2 11.9 53 5.6 SSE 28 37 15 20 1011.2 1011.2 0.0
23/03:30pm 22.0 17.3 12.0 53 5.6 SSE 28 39 15 21 1010.9 1010.9 0.0
23/03:00pm 22.1 18.7 12.4 54 5.5 SSE 22 33 12 18 1010.7 1010.7 0.0
23/02:30pm 23.0 19.6 11.4 48 6.5 SSE 20 26 11 14 1010.6 1010.6 0.0
23/02:00pm 22.7 19.3 11.1 48 6.5 SSE 20 26 11 14 1010.7 1010.7 0.0
23/01:30pm 21.9 18.6 11.0 50 6.0 ESE 19 20 10 11 1010.8 1010.8 0.0
23/01:00pm 21.7 18.9 11.4 52 5.7 SSE 17 24 9 13 1011.2 1011.2 0.0
23/12:30pm 21.6 19.3 13.0 58 4.9 SSE 17 22 9 12 1011.5 1011.5 0.0
23/12:00pm 20.6 18.6 13.8 65 3.9 SE 17 24 9 13 1011.5 1011.5 0.0
23/11:30am 20.6 18.9 13.6 64 4.0 SE 15 22 8 12 1011.9 1011.8 0.0
23/11:00am 20.5 18.4 13.5 64 4.0 SE 17 22 9 12 1012.1 1012.0 0.0
23/10:30am 20.8 19.4 13.5 63 4.2 SE 13 20 7 11 1012.4 1012.3 0.0
23/10:00am 20.0 18.5 13.2 65 3.9 S 13 20 7 11 1012.6 1012.5 0.0
23/09:30am 19.5 18.4 13.2 67 3.6 SSW 11 19 6 10 1012.7 1012.6 0.0
23/09:00am 18.9 17.9 12.4 66 3.6 SSW 9 13 5 7 1012.8 1012.7 0.0
23/08:30am 18.4 17.9 12.8 70 3.1 SSW 7 11 4 6 1012.6 1012.5 0.0
23/08:00am 17.9 17.1 12.8 72 2.9 SSW 9 13 5 7 1012.4 1012.3 0.0
23/07:30am 17.4 16.9 12.7 74 2.6 WSW 7 11 4 6 1012.0 1011.9 0.0
23/07:00am 16.4 15.8 12.4 77 2.2 W 7 9 4 5 1011.9 1011.8 0.0
23/06:30am 16.3 15.7 12.3 77 2.2 W 7 9 4 5 1011.5 1011.5 0.0
23/06:00am 16.4 15.4 12.4 77 2.2 W 9 13 5 7 1011.3 1011.3 0.0
23/05:30am 16.4 15.4 12.4 77 2.2 WNW 9 11 5 6 1011.4 1011.4 0.0
23/05:00am 16.6 15.6 12.2 75 2.4 W 9 15 5 8 1011.1 1011.1 0.0
23/04:30am 16.8 16.1 12.1 74 2.6 WSW 7 11 4 6 1011.1 1011.1 0.0
23/04:00am 16.7 15.3 12.3 75 2.4 SW 11 15 6 8 1010.6 1010.6 0.0
23/03:30am 16.8 14.9 11.9 73 2.7 SW 13 19 7 10 1010.4 1010.4 0.0
23/03:00am 17.6 15.0 12.1 70 3.0 SW 17 24 9 13 1010.0 1010.0 0.0
23/02:30am 17.5 16.5 12.2 71 2.9 W 9 11 5 6 1009.8 1009.8 0.0
23/02:00am 17.7 15.8 11.9 69 3.2 W 13 17 7 9 1009.5 1009.5 0.0
23/01:30am 18.3 16.9 12.1 67 3.4 W 11 15 6 8 1009.7 1009.7 0.0
23/01:00am 18.5 16.8 12.3 67 3.5 W 13 19 7 10 1009.9 1009.9 0.0
23/12:30am 17.3 16.6 12.0 71 2.9 NW 7 9 4 5 1009.8 1009.8 0.0
23/12:00am 17.9 16.8 12.1 69 3.2 W 9 13 5 7 1009.3 1009.3 0.0
 
Date/Time
EDT
Temp
°C
App
Temp
°C
Dew
Point
Rel
Hum
%
Delta-T
°C
Wind Press
QNH
hPa
Press
MSL
hPa
Rain
since 9 am
mm
Dir
 
Spd
km/h
Gust
km/h
Spd
kts
Gust
kts
22/11:30pm 17.8 18.6 12.5 71 2.9 CALM 0 7 0 4 1009.2 1009.2 0.0
22/11:00pm 18.6 17.3 12.6 68 3.4 SW 11 15 6 8 1009.0 1009.0 0.0
22/10:30pm 19.1 18.2 12.6 66 3.6 SW 9 15 5 8 1009.0 1009.0 0.0
22/10:00pm 19.8 17.4 12.6 63 4.1 SSW 17 22 9 12 1008.2 1008.2 0.0
22/09:30pm 24.8 22.8 10.3 40 8.0 W 11 13 6 7 1007.0 1007.0 0.0
22/09:00pm 26.7 23.1 10.0 35 9.3 NNW 19 30 10 16 1006.3 1006.3 0.0
22/08:30pm 27.9 22.2 9.7 32 10.1 NW 30 41 16 22 1006.0 1006.0 0.0
22/08:00pm 28.7 23.5 8.9 29 11.0 NW 26 41 14 22 1005.1 1005.1 0.0
22/07:30pm 29.5 23.6 7.4 25 11.9 NNW 28 46 15 25 1005.0 1005.0 0.0
22/07:28pm 29.6 23.7 7.5 25 12.0 NNW 28 46 15 25 1005.0 1005.0 0.0
22/07:00pm 30.5 23.2 7.0 23 12.7 NNW 35 50 19 27 1004.6 1004.6 0.0
22/06:30pm 30.3 23.5 7.5 24 12.4 NNW 33 44 18 24 1004.8 1004.8 0.0
22/06:00pm 30.8 24.0 7.9 24 12.6 NNW 33 46 18 25 1004.8 1004.8 0.0
22/05:51pm 30.6 24.0 7.7 24 12.5 NNW 32 50 17 27 1005.0 1005.0 0.0
22/05:30pm 30.7 24.5 7.8 24 12.5 NNW 30 46 16 25 1004.8 1004.8 0.0
22/05:00pm 30.5 24.0 8.3 25 12.3 NNW 32 52 17 28 1004.9 1004.9 0.0
22/04:30pm 31.4 24.2 7.8 23 13.0 NNW 35 61 19 33 1004.7 1004.7 0.0
22/04:18pm 31.7 25.9 8.0 23 13.1 N 28 46 15 25 1004.9 1004.9 0.0
22/04:00pm 31.3 24.7 7.7 23 13.0 N 32 44 17 24 1005.2 1005.2 0.0
22/03:40pm 30.4 24.2 6.3 22 12.8 NNW 28 46 15 25 1005.6 1005.6 0.0
22/03:30pm 30.2 23.4 6.8 23 12.6 NNW 32 44 17 24 1006.1 1006.1 0.0
22/03:16pm 29.8 23.0 7.1 24 12.2 NNW 32 50 17 27 1006.5 1006.5 0.0
22/03:00pm 28.9 23.1 8.0 27 11.4 N 28 41 15 22 1007.1 1007.1 0.0
22/02:43pm 27.8 22.0 8.1 29 10.7 N 28 48 15 26 1007.1 1007.1 0.0
22/02:30pm 27.3 21.2 8.2 30 10.3 N 30 41 16 22 1007.1 1007.1 0.0
22/02:00pm 28.3 22.2 8.1 28 11.0 N 30 46 16 25 1007.1 1007.1 0.0
22/01:55pm 28.3 22.8 9.1 30 10.6 N 28 46 15 25 1007.1 1007.1 0.0
22/01:30pm 27.4 21.4 8.8 31 10.2 N 30 44 16 24 1007.4 1007.4 0.0
22/01:20pm 26.9 21.4 9.3 33 9.7 N 28 46 15 25 1007.8 1007.8 0.0
22/01:00pm 25.3 20.0 10.0 38 8.5 N 28 39 15 21 1008.0 1008.0 0.0
22/12:30pm 23.7 18.7 9.7 41 7.6 NNE 26 35 14 19 1008.4 1008.4 0.0
22/12:17pm 23.0 17.7 9.8 43 7.2 NNE 28 37 15 20 1008.3 1008.3 0.0
22/12:00pm 24.0 19.0 8.0 36 8.5 N 24 33 13 18 1010.6 1010.6 0.0
22/11:30am 23.9 21.5 9.9 41 7.7 N 13 20 7 11 1010.5 1010.5 0.0

Other Formats:

Comma delimited format used in spreadsheet applications
http://www.bom.gov.au/fwo/IDV60801/IDV60801.94865.axf

JavaScript Object Notation format (JSON) in row-major order
http://www.bom.gov.au/fwo/IDV60801/IDV60801.94865.json